Latest Weather Observations for Merriwa

IDN60801

Issued at 2:05 am EDT Tuesday 25 November 2014 (issued every 30 minutes, with the page automatically refreshed every 10 minutes)

About weather observations | Map of weather stations | Latest weather observations for NSW | Other Formats
Station Details ID: 061287 Name: MERRIWA (ROSCOMMON) Lat: -32.19 Lon: 150.17 Height: 375.0 m
Data from the previous 72 hours. | See also: Recent months at Merriwa
Date/Time
EDT
Temp
°C
App
Temp
°C
Dew
Point
Rel
Hum
%
Delta-T
°C
Wind Press
QNH
hPa
Press
MSL
hPa
Rain
since 9 am
mm
Dir
 
Spd
km/h
Gust
km/h
Spd
kts
Gust
kts
25/02:00am 21.2 21.1 17.8 81 2.1 W 15 19 8 10 1013.1 1011.9 1.0
25/01:30am 21.6 20.4 17.6 78 2.5 NW 20 22 11 12 1013.2 1012.0 0.8
25/01:00am 21.7 20.8 17.7 78 2.5 NW 19 22 10 12 1013.4 1012.2 0.8
25/12:30am 21.5 21.0 17.7 79 2.4 NW 17 22 9 12 1013.8 1012.7 0.8
25/12:00am 22.7 20.9 16.9 70 3.6 W 22 32 12 17 1014.2 1013.1 0.8
 
Date/Time
EDT
Temp
°C
App
Temp
°C
Dew
Point
Rel
Hum
%
Delta-T
°C
Wind Press
QNH
hPa
Press
MSL
hPa
Rain
since 9 am
mm
Dir
 
Spd
km/h
Gust
km/h
Spd
kts
Gust
kts
24/11:30pm 23.8 22.7 17.3 67 4.1 W 19 28 10 15 1014.3 1013.2 0.8
24/11:00pm 24.3 24.0 17.3 65 4.4 W 15 26 8 14 1014.0 1012.9 0.8
24/10:30pm 24.3 23.8 17.8 67 4.1 W 17 24 9 13 1013.5 1012.3 0.8
24/10:00pm 25.0 25.8 19.1 70 3.8 W 13 19 7 10 1012.9 1011.7 0.6
24/09:30pm 26.1 26.8 18.0 61 5.2 W 11 13 6 7 1012.1 1010.9 0.6
24/09:00pm 26.0 25.9 17.9 61 5.2 NW 15 19 8 10 1011.3 1010.1 0.6
24/08:30pm 27.1 25.1 17.3 55 6.2 NNW 24 35 13 19 1011.0 1009.8 0.6
24/08:00pm 26.3 25.7 17.6 58 5.6 NNW 17 22 9 12 1010.7 1009.5 0.6
24/07:30pm 25.8 25.1 18.2 63 4.9 N 19 28 10 15 1010.5 1009.3 0.6
24/07:00pm 23.3 26.2 20.6 85 1.8 NNW 6 11 3 6 1010.0 1008.8 0.6
24/06:30pm 23.5 23.1 19.0 76 2.9 W 19 26 10 14 1009.9 1008.7 0.2
24/06:01pm 26.1 22.8 16.9 57 5.8 WNW 30 50 16 27 1009.5 1008.3 0.2
24/06:00pm 25.8 23.3 18.0 62 5.0 WNW 28 37 15 20 1009.4 1008.2 0.2
24/05:30pm 25.1 24.2 17.8 64 4.6 NNW 19 33 10 18 1008.5 1007.3 0.2
24/05:14pm 27.6 24.4 16.2 49 7.1 NW 28 46 15 25 1009.6 1008.4 0.0
24/05:00pm 29.4 28.4 16.6 46 8.1 W 17 28 9 15 1008.4 1007.2 0.0
24/04:30pm 29.0 26.9 16.2 46 8.1 WSW 22 33 12 18 1007.6 1006.4 0.0
24/04:20pm 28.7 27.1 16.6 48 7.7 SW 20 26 11 14 1007.7 1006.5 0.0
24/04:00pm 29.9 23.2 15.2 41 9.2 WSW 44 69 24 37 1008.6 1007.4 0.0
24/03:57pm 31.3 25.1 14.9 37 10.2 W 41 63 22 34 1008.4 1007.2 0.0
24/03:30pm 36.6 31.8 14.0 26 14.1 NW 32 44 17 24 1007.9 1006.7 0.0
24/03:00pm 36.7 31.3 12.8 24 14.7 WNW 33 48 18 26 1007.6 1006.4 0.0
24/02:39pm 38.8 34.3 12.5 21 16.2 NNW 28 46 15 25 1008.3 1007.1 0.0
24/02:30pm 38.1 34.6 13.3 22 15.5 N 24 35 13 19 1008.7 1007.5 0.0
24/02:24pm 39.0 35.2 14.7 23 15.5 NW 28 44 15 24 1009.2 1008.0 0.0
24/02:00pm 35.3 33.7 14.0 28 13.3 N 15 20 8 11 1010.1 1008.9 0.0
24/01:30pm 35.4 32.9 13.5 26 13.6 NNW 19 30 10 16 1010.8 1009.6 0.0
24/01:00pm 35.0 33.2 13.2 27 13.4 NW 15 28 8 15 1011.4 1010.3 0.0
24/12:30pm 35.3 32.6 12.9 26 13.7 N 19 32 10 17 1011.8 1010.6 0.0
24/12:00pm 35.7 32.9 12.6 25 14.1 N 19 22 10 12 1012.1 1010.9 0.0
24/11:30am 36.3 33.3 12.5 24 14.6 NNW 20 32 11 17 1012.3 1011.1 0.0
24/11:00am 35.9 34.3 12.8 25 14.2 ENE 13 22 7 12 1012.8 1011.6 0.0
24/10:30am 35.7 33.9 13.2 26 13.9 ENE 15 26 8 14 1013.1 1011.9 0.0
24/10:00am 34.8 33.5 13.6 28 13.1 E 13 20 7 11 1013.5 1012.3 0.0
24/09:30am 33.5 30.8 13.0 29 12.5 ESE 19 26 10 14 1013.7 1012.6 0.0
24/09:00am 32.4 30.4 12.6 30 12.0 ESE 15 22 8 12 1013.9 1012.8 0.0
24/08:30am 31.5 30.3 12.8 32 11.3 E 11 15 6 8 1014.1 1013.0 0.0
24/08:00am 29.2 28.7 12.6 36 9.9 E 7 11 4 6 1014.1 1013.0 0.0
24/07:30am 26.8 26.4 12.4 40 8.5 ENE 6 9 3 5 1014.2 1013.1 0.0
24/07:00am 26.7 25.8 12.7 42 8.3 NE 9 11 5 6 1013.8 1012.7 0.0
24/06:30am 24.1 23.0 13.0 50 6.5 ENE 11 17 6 9 1014.0 1012.9 0.0
24/06:00am 23.6 22.9 13.2 52 6.1 NW 9 11 5 6 1013.8 1012.7 0.0
24/05:30am 23.6 23.0 13.5 53 6.0 W 9 13 5 7 1013.3 1012.1 0.0
24/05:00am 23.2 23.0 13.1 53 5.9 S 6 9 3 5 1013.3 1012.1 0.0
24/04:30am 23.9 22.9 13.4 51 6.2 SSW 11 15 6 8 1013.0 1011.8 0.0
24/04:00am 24.0 24.9 12.9 50 6.5 CALM 0 0 0 0 1013.3 1012.1 0.0
24/03:30am 24.5 24.0 12.5 47 7.0 N 7 11 4 6 1013.9 1012.8 0.0
24/03:00am 24.7 24.0 12.0 45 7.4 E 7 9 4 5 1013.9 1012.8 0.0
24/02:30am 25.5 24.5 12.4 44 7.7 E 9 13 5 7 1014.5 1013.3 0.0
24/02:00am 25.4 24.5 12.6 45 7.5 S 9 13 5 7 1014.9 1013.7 0.0
24/01:30am 26.1 24.4 12.5 42 8.0 WSW 13 17 7 9 1015.1 1013.9 0.0
24/01:00am 26.6 25.2 12.3 41 8.4 ENE 11 15 6 8 1015.1 1013.9 0.0
24/12:30am 26.0 24.9 12.1 42 8.1 ENE 9 11 5 6 1016.1 1015.0 0.0
24/12:00am 27.7 26.3 12.1 38 9.2 ENE 11 19 6 10 1016.7 1015.6 0.0
 
Date/Time
EDT
Temp
°C
App
Temp
°C
Dew
Point
Rel
Hum
%
Delta-T
°C
Wind Press
QNH
hPa
Press
MSL
hPa
Rain
since 9 am
mm
Dir
 
Spd
km/h
Gust
km/h
Spd
kts
Gust
kts
23/11:30pm 28.9 24.9 11.9 35 10.0 N 24 37 13 20 1016.0 1014.8 0.0
23/11:00pm 29.0 25.3 11.6 34 10.2 NE 22 32 12 17 1015.8 1014.6 0.0
23/10:30pm 30.2 24.1 11.7 32 10.9 NNE 35 44 19 24 1015.4 1014.2 0.0
23/10:04pm 30.9 26.1 11.8 31 11.3 N 28 46 15 25 1015.2 1014.0 0.0
23/10:00pm 31.1 26.4 12.0 31 11.4 N 28 39 15 21 1015.2 1014.0 0.0
23/09:43pm 31.8 27.1 12.1 30 11.8 NNE 28 44 15 24 1015.0 1013.8 0.0
23/09:30pm 28.9 28.0 11.5 34 10.2 NNW 7 20 4 11 1013.3 1012.1 0.0
23/09:00pm 29.7 28.8 11.2 31 10.8 SSE 7 9 4 5 1012.3 1011.1 0.0
23/08:30pm 31.5 30.6 11.3 29 11.9 S 7 9 4 5 1011.9 1010.7 0.0
23/08:00pm 33.6 30.9 10.2 24 13.7 S 15 17 8 9 1011.7 1010.5 0.0
23/07:30pm 35.3 32.0 8.2 19 15.5 NNE 15 19 8 10 1010.7 1009.5 0.0
23/07:20pm 35.3 28.4 7.4 18 15.8 NW 33 57 18 31 1011.0 1009.8 0.0
23/07:15pm 34.7 28.5 9.2 21 14.8 NW 32 37 17 20 1010.9 1009.7 0.0
23/07:00pm 34.0 32.4 7.9 20 14.8 NW 6 17 3 9 1010.5 1009.3 0.0
23/06:30pm 35.6 33.3 7.6 18 15.9 ENE 9 11 5 6 1010.1 1008.9 0.0
23/06:00pm 34.9 32.3 9.3 21 14.9 SSE 13 17 7 9 1010.2 1009.0 0.0
23/05:30pm 33.5 30.5 10.8 25 13.4 S 17 26 9 14 1010.6 1009.4 0.0
23/05:00pm 34.1 28.7 9.4 22 14.3 SSW 28 46 15 25 1011.2 1010.0 0.0
23/04:53pm 33.8 28.5 9.8 23 14.0 SW 28 46 15 25 1011.3 1010.1 0.0
23/04:30pm 34.9 30.2 9.3 21 14.9 SSW 24 41 13 22 1010.8 1009.6 0.0
23/04:21pm 35.3 31.1 9.7 21 15.0 SSW 22 33 12 18 1011.0 1009.8 0.0
23/04:00pm 40.4 37.0 10.6 17 18.1 NNW 19 24 10 13 1010.4 1009.2 0.0
23/03:30pm 39.5 34.5 4.8 12 19.2 SW 20 32 11 17 1011.0 1009.8 0.0
23/03:00pm 40.3 36.2 7.7 14 18.9 N 19 32 10 17 1010.7 1009.5 0.0
23/02:30pm 42.2 39.7 8.1 13 20.1 WNW 11 22 6 12 1011.0 1009.8 0.0
23/02:00pm 40.9 37.5 5.9 12 19.9 WNW 13 24 7 13 1011.7 1010.5 0.0
23/01:30pm 41.2 37.1 6.1 12 20.0 W 17 28 9 15 1012.0 1010.8 0.0
23/01:00pm 40.4 36.8 6.7 13 19.3 NNW 15 32 8 17 1012.4 1011.2 0.0
23/12:30pm 41.4 37.0 7.4 13 19.7 WNW 20 32 11 17 1012.7 1011.5 0.0
23/12:00pm 40.8 38.5 9.1 15 18.8 NW 11 22 6 12 1013.1 1011.9 0.0
23/11:30am 39.5 35.3 9.9 17 17.7 NW 22 30 12 16 1013.4 1012.2 0.0
23/11:00am 37.5 36.9 13.5 24 15.0 NNE 9 13 5 7 1013.8 1012.7 0.0
23/10:30am 34.9 34.9 13.7 28 13.1 W 6 11 3 6 1014.1 1013.0 0.0
23/10:00am 32.5 33.0 15.1 35 10.9 ENE 6 13 3 7 1014.3 1013.2 0.0
23/09:30am 30.1 30.7 15.8 42 9.0 S 7 13 4 7 1014.7 1013.5 0.0
23/09:00am 28.0 28.9 16.0 48 7.5 S 6 9 3 5 1014.6 1013.4 0.0
23/08:30am 26.3 27.2 16.5 54 6.1 S 7 11 4 6 1014.5 1013.3 0.0
23/08:00am 24.8 26.8 17.0 62 4.9 S 2 6 1 3 1014.3 1013.2 0.0
23/07:30am 23.3 24.5 16.8 67 4.0 SSE 6 7 3 4 1013.8 1012.7 0.0
23/07:00am 20.4 22.6 16.6 79 2.3 CALM 0 0 0 0 1013.8 1012.7 0.0
23/06:30am 17.1 19.1 16.1 94 0.6 CALM 0 7 0 4 1013.2 1012.0 0.0
23/06:00am 15.6 16.9 14.0 90 0.9 CALM 0 0 0 0 1013.1 1011.9 0.0
23/05:30am 15.6 16.8 13.8 89 1.0 CALM 0 2 0 1 1012.7 1011.5 0.0
23/05:00am 16.1 16.3 14.1 88 1.2 SSW 6 7 3 4 1012.6 1011.4 0.0
23/04:30am 16.0 17.1 13.5 85 1.4 CALM 0 0 0 0 1012.3 1011.1 0.0
23/04:00am 16.9 17.0 14.0 83 1.7 SW 6 9 3 5 1012.6 1011.4 0.0
23/03:30am 17.4 17.8 14.7 84 1.6 NNE 6 9 3 5 1012.5 1011.3 0.0
23/03:00am 18.5 18.4 15.0 80 2.1 NE 9 11 5 6 1012.4 1011.2 0.0
23/02:30am 19.1 19.5 15.4 79 2.2 NE 7 11 4 6 1012.7 1011.5 0.0
23/02:00am 18.3 17.6 13.2 72 2.9 NNE 9 13 5 7 1012.9 1011.7 0.0
23/01:30am 19.8 20.6 14.8 73 3.0 NE 4 7 2 4 1013.0 1011.8 0.0
23/01:00am 20.3 21.7 15.3 73 3.0 NE 2 7 1 4 1013.2 1012.0 0.0
23/12:30am 20.2 19.4 13.9 67 3.7 NE 11 13 6 7 1013.3 1012.1 0.0
23/12:00am 20.8 20.2 13.5 63 4.3 E 9 11 5 6 1013.5 1012.3 0.0
 
Date/Time
EDT
Temp
°C
App
Temp
°C
Dew
Point
Rel
Hum
%
Delta-T
°C
Wind Press
QNH
hPa
Press
MSL
hPa
Rain
since 9 am
mm
Dir
 
Spd
km/h
Gust
km/h
Spd
kts
Gust
kts
22/11:30pm 22.8 22.4 14.1 58 5.2 E 9 11 5 6 1013.7 1012.6 0.0
22/11:00pm 24.4 23.3 13.0 49 6.7 ESE 11 13 6 7 1013.5 1012.3 0.0
22/10:30pm 25.1 23.9 11.6 42 7.8 SE 9 15 5 8 1013.3 1012.1 0.0
22/10:00pm 24.6 22.6 8.5 36 8.8 NE 9 13 5 7 1013.1 1011.9 0.0
22/09:30pm 26.6 24.1 8.1 31 10.1 NE 11 13 6 7 1012.6 1011.4 0.0
22/09:00pm 25.7 23.2 4.8 26 10.8 ENE 7 11 4 6 1012.3 1011.1 0.0
22/08:30pm 28.6 27.1 4.8 22 12.5 SSW 2 6 1 3 1011.8 1010.6 0.0
22/08:00pm 30.9 27.8 3.8 18 14.1 WSW 9 11 5 6 1011.3 1010.1 0.0
22/07:30pm 34.7 31.0 4.3 15 16.3 WSW 13 20 7 11 1010.8 1009.6 0.0
22/07:00pm 36.9 32.7 4.0 13 17.8 W 15 24 8 13 1010.3 1009.1 0.0
22/06:30pm 36.8 33.4 5.9 15 17.2 WSW 13 17 7 9 1010.0 1008.8 0.0
22/06:00pm 37.7 32.5 3.4 12 18.5 WNW 20 26 11 14 1009.8 1008.6 0.0
22/05:30pm 38.2 35.4 7.0 15 17.8 NW 11 26 6 14 1009.9 1008.7 0.0
22/05:00pm 37.9 35.1 8.6 17 17.1 WNW 13 22 7 12 1010.0 1008.8 0.0
22/04:30pm 37.9 33.8 8.6 17 17.1 NNW 20 24 11 13 1010.4 1009.2 0.0
22/04:00pm 37.8 35.6 9.4 18 16.7 W 11 20 6 11 1010.7 1009.5 0.0
22/03:30pm 36.3 34.2 9.8 20 15.6 S 11 19 6 10 1011.2 1010.0 0.0
22/03:00pm 35.8 33.0 10.1 21 15.2 W 15 24 8 13 1011.9 1010.7 0.0
22/02:30pm 35.6 33.7 10.6 22 14.8 N 11 17 6 9 1012.4 1011.2 0.0
22/02:00pm 33.2 32.2 11.1 26 13.1 SSE 7 13 4 7 1012.7 1011.5 0.0
22/01:30pm 32.5 32.0 12.7 30 12.0 SW 7 15 4 8 1013.3 1012.1 0.0
22/01:00pm 30.5 29.4 14.2 37 10.0 ESE 13 20 7 11 1013.8 1012.7 0.0
22/12:30pm 29.9 29.9 15.2 41 9.2 E 9 15 5 8 1014.6 1013.4 0.0
22/12:00pm 27.3 26.7 14.7 46 7.7 ENE 11 19 6 10 1015.0 1013.8 0.0
22/11:30am 26.6 25.0 15.9 51 6.7 SE 19 28 10 15 1015.4 1014.2 0.0
22/11:00am 24.8 24.1 15.4 56 5.8 E 13 20 7 11 1016.0 1014.8 0.0
22/10:30am 23.8 22.6 16.1 62 4.8 ESE 17 24 9 13 1016.4 1015.3 0.0
22/10:00am 22.3 20.9 15.6 66 4.1 E 17 28 9 15 1016.7 1015.6 0.0
22/09:30am 21.3 20.8 15.8 71 3.3 E 13 20 7 11 1017.0 1015.9 0.0
22/09:00am 20.5 19.6 15.9 75 2.8 E 15 20 8 11 1016.8 1015.7 0.0
22/08:30am 19.8 17.9 15.7 77 2.5 E 20 32 11 17 1016.7 1015.6 0.0
22/08:20am 20.0 18.0 15.6 76 2.7 E 20 32 11 17 1016.6 1015.5 0.0
22/08:00am 19.8 17.9 15.7 77 2.5 E 20 32 11 17 1016.3 1015.2 0.0
22/07:30am 19.5 17.8 15.8 79 2.2 E 19 24 10 13 1016.0 1014.8 0.0
22/07:00am 19.1 18.6 15.8 81 2.0 E 13 20 7 11 1015.7 1014.5 0.0
22/06:30am 18.4 17.9 15.8 85 1.6 E 13 20 7 11 1015.3 1014.1 0.0
22/06:06am 17.1 16.8 15.4 90 1.0 E 11 15 6 8 1015.0 1013.8 0.0
22/06:00am 16.8 16.8 15.2 90 0.9 E 9 13 5 7 1014.8 1013.6 0.0
22/05:30am 16.9 16.5 14.2 84 1.6 E 9 13 5 7 1014.3 1013.2 0.0
22/05:00am 17.3 16.7 13.4 78 2.2 E 9 13 5 7 1013.9 1012.8 0.0
22/04:30am 18.3 17.0 13.6 74 2.7 E 13 22 7 12 1013.6 1012.4 0.0
22/04:00am 19.2 17.9 13.6 70 3.3 E 13 22 7 12 1013.3 1012.1 0.0
22/03:30am 19.9 18.5 13.4 66 3.8 E 13 20 7 11 1013.1 1011.9 0.0
22/03:00am 20.8 19.4 13.5 63 4.3 E 13 19 7 10 1012.9 1011.7 0.0
22/02:30am 21.6 20.2 13.5 60 4.7 E 13 20 7 11 1012.8 1011.6 0.0

Other Formats:

Comma delimited format used in spreadsheet applications
http://www.bom.gov.au/fwo/IDN60801/IDN60801.95754.axf

JavaScript Object Notation format (JSON) in row-major order
http://www.bom.gov.au/fwo/IDN60801/IDN60801.95754.json